createdAt,value
2022-12-29T00:00:22.217Z,11.80
2022-12-29T00:02:49.397Z,11.80
2022-12-29T00:05:16.562Z,11.80
2022-12-29T00:07:43.602Z,11.90
2022-12-29T00:10:10.703Z,11.90
2022-12-29T00:12:56.029Z,11.90
2022-12-29T00:15:38.339Z,11.90
2022-12-29T00:18:05.755Z,11.90
2022-12-29T00:20:56.852Z,11.90
2022-12-29T00:23:42.633Z,11.90
2022-12-29T00:26:36.440Z,11.90
2022-12-29T00:29:22.253Z,11.90
2022-12-29T00:32:07.840Z,11.80
2022-12-29T00:34:53.350Z,11.90
2022-12-29T00:37:40.841Z,11.80
2022-12-29T00:40:26.914Z,11.90
2022-12-29T00:43:12.314Z,11.90
2022-12-29T00:45:42.709Z,11.90
2022-12-29T00:48:09.778Z,12.00
2022-12-29T00:50:36.759Z,12.00
2022-12-29T00:53:03.787Z,12.00
2022-12-29T00:55:30.900Z,12.00
2022-12-29T00:57:59.414Z,12.10
2022-12-29T01:00:26.449Z,12.00
2022-12-29T01:02:53.534Z,12.00
2022-12-29T01:05:20.533Z,12.00
2022-12-29T01:07:47.520Z,12.00
2022-12-29T01:10:15.855Z,12.00
2022-12-29T01:12:42.874Z,12.00
2022-12-29T01:15:14.073Z,12.00
2022-12-29T01:17:41.170Z,12.00
2022-12-29T01:20:08.952Z,12.00
2022-12-29T01:22:36.023Z,11.90
2022-12-29T01:25:04.265Z,11.90
2022-12-29T01:27:31.261Z,11.80
2022-12-29T01:29:58.322Z,11.80
2022-12-29T01:32:25.321Z,11.70
2022-12-29T01:34:52.428Z,11.70
2022-12-29T01:37:19.375Z,11.60
2022-12-29T01:39:46.386Z,11.60
2022-12-29T01:42:19.769Z,11.60
2022-12-29T01:44:57.891Z,11.60
2022-12-29T01:47:47.265Z,11.60
2022-12-29T01:50:28.505Z,11.60
2022-12-29T01:53:06.474Z,11.50
2022-12-29T01:55:42.253Z,11.50
2022-12-29T01:58:10.970Z,11.50
2022-12-29T02:00:38.945Z,11.50
2022-12-29T02:03:07.943Z,11.50
2022-12-29T02:06:26.837Z,11.50
2022-12-29T02:08:56.396Z,11.50
2022-12-29T02:11:27.428Z,11.50
2022-12-29T02:13:54.566Z,11.60
2022-12-29T02:17:27.888Z,11.50
2022-12-29T02:20:25.593Z,11.50
2022-12-29T02:23:27.193Z,11.50
2022-12-29T02:26:14.990Z,11.40
2022-12-29T02:28:59.966Z,11.40
2022-12-29T02:32:07.004Z,11.40
2022-12-29T02:34:52.187Z,11.30
2022-12-29T02:37:29.256Z,11.30
2022-12-29T02:40:08.106Z,11.30
2022-12-29T02:42:53.240Z,11.30
2022-12-29T02:46:01.296Z,11.30
2022-12-29T02:48:42.859Z,11.20
2022-12-29T02:51:20.810Z,11.20
2022-12-29T02:54:06.364Z,11.10
2022-12-29T02:56:34.582Z,11.00
2022-12-29T02:59:01.837Z,11.10
2022-12-29T03:02:18.253Z,11.00
2022-12-29T03:05:14.010Z,11.00
2022-12-29T03:08:26.036Z,10.90
2022-12-29T03:11:32.954Z,10.90
2022-12-29T03:14:36.915Z,10.80
2022-12-29T03:17:20.375Z,10.80
2022-12-29T03:19:50.953Z,10.80
2022-12-29T03:22:31.723Z,10.80
2022-12-29T03:25:33.565Z,10.80
2022-12-29T03:28:29.663Z,10.70
2022-12-29T03:30:58.865Z,10.70
2022-12-29T03:33:29.785Z,10.70
2022-12-29T03:36:04.877Z,10.70
2022-12-29T03:39:13.345Z,10.70
2022-12-29T03:41:45.610Z,10.70
2022-12-29T03:44:14.323Z,10.70
2022-12-29T03:46:41.421Z,10.60
2022-12-29T03:49:09.042Z,10.60
2022-12-29T03:51:36.001Z,10.70
2022-12-29T03:54:03.831Z,10.60
2022-12-29T03:56:30.856Z,10.60
2022-12-29T03:58:57.824Z,10.60
2022-12-29T04:01:25.005Z,10.50
2022-12-29T04:03:52.048Z,10.50
2022-12-29T04:06:19.040Z,10.50
2022-12-29T04:08:46.004Z,10.50
2022-12-29T04:11:12.972Z,10.60
2022-12-29T04:13:41.940Z,10.70
2022-12-29T04:16:09.589Z,10.80
2022-12-29T04:18:36.729Z,10.80
2022-12-29T04:21:04.604Z,10.80
2022-12-29T04:23:35.328Z,10.80
2022-12-29T04:26:03.202Z,10.90
2022-12-29T04:28:31.397Z,10.90
2022-12-29T04:30:58.656Z,10.90
2022-12-29T04:33:26.312Z,10.90
2022-12-29T04:35:54.997Z,10.90
2022-12-29T04:38:24.058Z,10.90
2022-12-29T04:40:51.456Z,10.90
2022-12-29T04:43:20.329Z,10.80
2022-12-29T04:45:48.109Z,10.90
2022-12-29T04:48:15.636Z,10.80
2022-12-29T04:50:42.881Z,10.80
2022-12-29T04:53:10.019Z,10.70
2022-12-29T04:55:37.488Z,10.70
2022-12-29T04:58:04.659Z,10.70
2022-12-29T05:00:31.689Z,10.70
2022-12-29T05:02:58.869Z,10.70
2022-12-29T05:05:26.228Z,10.80
2022-12-29T05:07:53.177Z,10.80
2022-12-29T05:10:20.177Z,10.80
2022-12-29T05:12:47.175Z,10.80
2022-12-29T05:15:14.831Z,10.80
2022-12-29T05:17:41.740Z,10.80
2022-12-29T05:20:11.710Z,10.80
2022-12-29T05:22:38.842Z,10.80
2022-12-29T05:25:06.395Z,10.80
2022-12-29T05:27:33.532Z,10.80
2022-12-29T05:30:00.524Z,10.80
2022-12-29T05:32:27.616Z,10.90
2022-12-29T05:34:54.622Z,10.90
2022-12-29T05:37:21.790Z,10.90
2022-12-29T05:39:51.016Z,10.90
2022-12-29T05:42:17.971Z,10.90
2022-12-29T05:44:45.325Z,10.90
2022-12-29T05:47:12.386Z,10.90
2022-12-29T05:49:39.473Z,10.90
2022-12-29T05:52:06.457Z,10.90
2022-12-29T05:54:33.396Z,10.90
2022-12-29T05:57:00.483Z,10.80
2022-12-29T05:59:33.686Z,10.80
2022-12-29T06:02:00.834Z,10.80
2022-12-29T06:04:27.889Z,10.90
2022-12-29T06:06:54.824Z,10.80
2022-12-29T06:09:21.786Z,10.90
2022-12-29T06:11:48.746Z,10.90
2022-12-29T06:14:15.729Z,10.80
2022-12-29T06:16:43.126Z,10.90
2022-12-29T06:19:10.289Z,10.90
2022-12-29T06:21:38.233Z,10.90
2022-12-29T06:24:06.385Z,10.90
2022-12-29T06:26:33.375Z,10.80
2022-12-29T06:29:00.482Z,10.80
2022-12-29T06:31:27.505Z,10.80
2022-12-29T06:33:54.460Z,10.80
2022-12-29T06:36:21.414Z,10.90
2022-12-29T06:38:48.447Z,10.80
2022-12-29T06:41:15.410Z,10.90
2022-12-29T06:43:42.355Z,10.80
2022-12-29T06:46:09.410Z,10.90
2022-12-29T06:48:36.461Z,10.80
2022-12-29T06:51:03.649Z,10.90
2022-12-29T06:53:30.587Z,10.80
2022-12-29T06:55:57.743Z,10.80
2022-12-29T06:58:24.784Z,10.90
2022-12-29T07:00:51.872Z,10.80
2022-12-29T07:03:18.937Z,10.80
2022-12-29T07:05:46.098Z,10.80
2022-12-29T07:08:13.199Z,10.90
2022-12-29T07:10:40.241Z,10.80
2022-12-29T07:13:08.774Z,10.80
2022-12-29T07:15:37.786Z,10.80
2022-12-29T07:18:05.246Z,10.90
2022-12-29T07:20:32.970Z,10.80
2022-12-29T07:23:00.032Z,10.90
2022-12-29T07:25:27.007Z,10.90
2022-12-29T07:27:54.695Z,10.90
2022-12-29T07:30:21.802Z,10.80
2022-12-29T07:32:48.878Z,10.80
2022-12-29T07:35:16.117Z,10.80
2022-12-29T07:37:46.769Z,10.90
2022-12-29T07:40:16.898Z,10.80
2022-12-29T07:42:43.954Z,10.90
2022-12-29T07:45:11.694Z,10.90
2022-12-29T07:47:38.755Z,10.90
2022-12-29T07:50:06.936Z,10.90
2022-12-29T07:52:33.926Z,10.90
2022-12-29T07:55:00.923Z,10.90
2022-12-29T07:57:31.854Z,10.90
2022-12-29T07:59:59.613Z,10.90
2022-12-29T08:02:27.604Z,10.90
2022-12-29T08:04:54.844Z,10.90
2022-12-29T08:07:22.141Z,10.90
2022-12-29T08:09:50.716Z,10.80
2022-12-29T08:12:17.799Z,10.80
2022-12-29T08:14:44.757Z,10.80
2022-12-29T08:17:11.785Z,10.80
2022-12-29T08:19:39.418Z,10.80
2022-12-29T08:22:06.452Z,10.80
2022-12-29T08:24:33.408Z,10.70
2022-12-29T08:27:06.892Z,10.60
2022-12-29T08:29:38.981Z,10.60
2022-12-29T08:32:06.555Z,10.50
2022-12-29T08:34:34.389Z,10.40
2022-12-29T08:37:01.457Z,10.40
2022-12-29T08:39:28.742Z,10.30
2022-12-29T08:41:56.000Z,10.20
2022-12-29T08:44:23.287Z,10.00
2022-12-29T08:46:50.313Z,10.00
2022-12-29T08:49:17.416Z,9.90
2022-12-29T08:51:44.345Z,9.80
2022-12-29T08:54:11.326Z,9.80
2022-12-29T08:56:38.316Z,9.80
2022-12-29T08:59:05.310Z,9.80
2022-12-29T09:01:32.553Z,9.90
2022-12-29T09:04:16.957Z,9.80
2022-12-29T09:06:46.262Z,9.80
2022-12-29T09:09:13.815Z,9.70
2022-12-29T09:11:40.913Z,9.70
2022-12-29T09:14:07.975Z,9.70
2022-12-29T09:16:36.002Z,9.70
2022-12-29T09:19:04.123Z,9.70
2022-12-29T09:21:31.444Z,9.70
2022-12-29T09:23:58.456Z,9.70
2022-12-29T09:26:25.411Z,9.70
2022-12-29T09:28:52.434Z,9.80
2022-12-29T09:31:19.422Z,9.90
2022-12-29T09:33:46.418Z,9.90
2022-12-29T09:36:13.341Z,10.00
2022-12-29T09:38:40.307Z,10.00
2022-12-29T09:41:35.903Z,10.10
2022-12-29T09:44:20.929Z,10.10
2022-12-29T09:46:56.254Z,10.10
2022-12-29T09:49:43.400Z,10.10
2022-12-29T09:52:33.900Z,10.10
2022-12-29T09:55:18.943Z,10.30
2022-12-29T09:58:06.452Z,10.30
2022-12-29T10:00:57.492Z,10.20
2022-12-29T10:03:52.668Z,10.20
2022-12-29T10:06:56.471Z,10.30
2022-12-29T10:10:02.412Z,10.30
2022-12-29T10:12:53.450Z,10.40
2022-12-29T10:15:49.479Z,10.40
2022-12-29T10:18:44.306Z,10.50
2022-12-29T10:21:39.944Z,10.50
2022-12-29T10:24:12.463Z,10.60
2022-12-29T10:26:45.201Z,10.60
2022-12-29T10:29:23.215Z,10.60
2022-12-29T10:32:39.703Z,10.70
2022-12-29T10:35:19.502Z,10.70
2022-12-29T10:38:04.430Z,10.80
2022-12-29T10:40:44.851Z,10.70
2022-12-29T10:43:26.626Z,10.80
2022-12-29T10:45:59.006Z,10.80
2022-12-29T10:48:35.096Z,10.80
2022-12-29T10:51:09.686Z,10.90
2022-12-29T10:54:00.661Z,10.80
2022-12-29T10:56:47.604Z,10.90
2022-12-29T10:59:23.979Z,11.00
2022-12-29T11:02:02.826Z,11.00
2022-12-29T11:05:05.188Z,11.00
2022-12-29T11:07:32.877Z,11.00
2022-12-29T11:10:40.873Z,10.90
2022-12-29T11:13:19.335Z,10.90
2022-12-29T11:15:51.798Z,10.90
2022-12-29T11:18:40.870Z,10.90
2022-12-29T11:21:35.525Z,10.90
2022-12-29T11:24:05.701Z,10.90
2022-12-29T11:26:35.359Z,10.90
2022-12-29T11:29:18.735Z,10.90
2022-12-29T11:31:52.486Z,10.90
2022-12-29T11:34:36.179Z,11.00
2022-12-29T11:37:54.999Z,11.10
2022-12-29T11:40:22.697Z,11.40
2022-12-29T11:42:55.506Z,11.50
2022-12-29T11:45:26.155Z,11.50
2022-12-29T11:47:59.964Z,11.50
2022-12-29T11:50:31.352Z,11.40
2022-12-29T11:53:03.382Z,11.30
2022-12-29T11:55:32.173Z,11.20
2022-12-29T11:58:04.119Z,11.20
2022-12-29T12:00:36.023Z,11.10
2022-12-29T12:03:18.360Z,11.00
2022-12-29T12:05:53.737Z,11.00
2022-12-29T12:08:57.996Z,11.00
2022-12-29T12:11:41.890Z,11.00
2022-12-29T12:14:34.956Z,10.90
2022-12-29T12:17:11.280Z,10.90
2022-12-29T12:19:45.516Z,10.80
2022-12-29T12:22:26.174Z,10.80
2022-12-29T12:24:57.276Z,10.70
2022-12-29T12:27:41.362Z,10.80
2022-12-29T12:30:17.576Z,10.80
2022-12-29T12:33:17.133Z,10.90
2022-12-29T12:35:57.863Z,11.00
2022-12-29T12:39:00.915Z,11.00
2022-12-29T12:41:56.869Z,10.90
2022-12-29T12:44:57.497Z,10.90
2022-12-29T12:47:30.138Z,10.80
2022-12-29T12:50:14.562Z,10.70
2022-12-29T12:53:11.177Z,10.60
2022-12-29T12:56:19.234Z,10.60
2022-12-29T12:59:09.753Z,10.70
2022-12-29T13:01:55.975Z,10.90
2022-12-29T13:04:41.784Z,11.00
2022-12-29T13:07:40.852Z,10.90
2022-12-29T13:10:21.874Z,10.90
2022-12-29T13:13:30.457Z,10.90
2022-12-29T13:16:14.095Z,10.80
2022-12-29T13:19:20.997Z,10.70
2022-12-29T13:22:49.437Z,10.70
2022-12-29T13:25:32.081Z,10.50
2022-12-29T13:28:16.383Z,10.00
2022-12-29T13:30:57.851Z,9.60
2022-12-29T13:33:52.858Z,9.30
2022-12-29T13:36:36.457Z,9.10
2022-12-29T13:39:16.202Z,9.00
2022-12-29T13:41:52.723Z,9.00
2022-12-29T13:44:36.778Z,8.90
2022-12-29T13:47:26.513Z,8.80
2022-12-29T13:49:55.396Z,8.80
2022-12-29T13:52:38.661Z,8.70
2022-12-29T13:55:39.430Z,8.60
2022-12-29T13:58:36.227Z,8.60
2022-12-29T14:01:35.838Z,8.60
2022-12-29T14:04:13.121Z,8.70
2022-12-29T14:06:41.920Z,8.70
2022-12-29T14:09:49.999Z,8.70
2022-12-29T14:12:30.324Z,8.70
2022-12-29T14:15:12.560Z,8.80
2022-12-29T14:17:41.796Z,8.80
2022-12-29T14:20:22.573Z,8.90
2022-12-29T14:23:11.286Z,8.90
2022-12-29T14:26:31.947Z,9.00
2022-12-29T14:29:39.497Z,9.00
2022-12-29T14:32:27.003Z,9.00
2022-12-29T14:35:04.786Z,9.00
2022-12-29T14:37:34.792Z,9.10
2022-12-29T14:40:19.256Z,9.10
2022-12-29T14:42:57.071Z,9.10
2022-12-29T14:45:30.163Z,9.00
2022-12-29T14:47:57.952Z,9.00
2022-12-29T14:50:45.219Z,9.00
2022-12-29T14:53:48.827Z,8.90
2022-12-29T14:56:25.887Z,8.90
2022-12-29T14:59:05.447Z,9.00
2022-12-29T15:01:35.208Z,9.00
2022-12-29T15:04:22.400Z,9.00
2022-12-29T15:06:51.389Z,9.00
2022-12-29T15:10:02.311Z,9.00
2022-12-29T15:12:48.498Z,9.00
2022-12-29T15:15:25.209Z,8.90
2022-12-29T15:17:52.928Z,8.90
2022-12-29T15:20:30.929Z,8.90
2022-12-29T15:23:15.695Z,8.80
2022-12-29T15:25:54.672Z,8.80
2022-12-29T15:28:23.209Z,8.70
2022-12-29T15:31:03.507Z,8.60
2022-12-29T15:33:30.481Z,8.50
2022-12-29T15:36:04.229Z,8.50
2022-12-29T15:38:38.661Z,8.40
2022-12-29T15:41:30.419Z,8.30
2022-12-29T15:44:22.035Z,8.30
2022-12-29T15:46:49.977Z,8.20
2022-12-29T15:49:17.758Z,8.30
2022-12-29T15:51:45.280Z,8.30
2022-12-29T15:54:21.776Z,8.30
2022-12-29T15:56:50.879Z,8.30
2022-12-29T15:59:32.581Z,8.30
2022-12-29T16:02:07.121Z,8.30
2022-12-29T16:04:54.292Z,8.30
2022-12-29T16:07:41.248Z,8.30
2022-12-29T16:10:47.250Z,8.20
2022-12-29T16:13:27.692Z,8.20
2022-12-29T16:16:03.133Z,8.20
2022-12-29T16:18:36.577Z,8.20
2022-12-29T16:21:06.709Z,8.20
2022-12-29T16:23:37.363Z,8.20
2022-12-29T16:26:08.809Z,8.30
2022-12-29T16:28:45.379Z,8.30
2022-12-29T16:31:33.536Z,8.30
2022-12-29T16:34:43.985Z,8.40
2022-12-29T16:37:32.241Z,8.40
2022-12-29T16:40:19.388Z,8.50
2022-12-29T16:42:52.543Z,8.60
2022-12-29T16:45:19.626Z,8.70
2022-12-29T16:48:07.473Z,8.70
2022-12-29T16:50:37.277Z,8.70
2022-12-29T16:53:05.772Z,8.70
2022-12-29T16:55:33.331Z,8.70
2022-12-29T16:58:00.777Z,8.60
2022-12-29T17:00:35.413Z,8.60
2022-12-29T17:03:07.535Z,8.50
2022-12-29T17:05:37.971Z,8.50
2022-12-29T17:08:26.293Z,8.50
2022-12-29T17:11:16.053Z,8.50
2022-12-29T17:13:43.047Z,8.40
2022-12-29T17:16:12.501Z,8.40
2022-12-29T17:18:39.779Z,8.40
2022-12-29T17:21:06.736Z,8.40
2022-12-29T17:23:34.999Z,8.30
2022-12-29T17:26:02.845Z,8.30
2022-12-29T17:28:32.163Z,8.20
2022-12-29T17:31:03.700Z,8.30
2022-12-29T17:33:38.738Z,8.20
2022-12-29T17:36:06.045Z,8.30
2022-12-29T17:38:36.348Z,8.30
2022-12-29T17:41:03.563Z,8.20
2022-12-29T17:43:36.674Z,8.20
2022-12-29T17:46:08.096Z,8.20
2022-12-29T17:48:35.519Z,8.30
2022-12-29T17:51:02.629Z,8.30
2022-12-29T17:53:30.750Z,8.30
2022-12-29T17:55:58.018Z,8.30
2022-12-29T17:58:28.332Z,8.30
2022-12-29T18:01:01.700Z,8.30
2022-12-29T18:03:34.102Z,8.30
2022-12-29T18:06:02.478Z,8.30
2022-12-29T18:08:29.519Z,8.40
2022-12-29T18:10:57.290Z,8.40
2022-12-29T18:13:33.709Z,8.40
2022-12-29T18:16:11.383Z,8.40
2022-12-29T18:18:38.351Z,8.40
2022-12-29T18:21:05.673Z,8.40
2022-12-29T18:23:40.112Z,8.40
2022-12-29T18:26:28.372Z,8.40
2022-12-29T18:28:57.147Z,8.40
2022-12-29T18:31:32.360Z,8.40
2022-12-29T18:34:04.803Z,8.30
2022-12-29T18:36:31.741Z,8.40
2022-12-29T18:38:58.722Z,8.40
2022-12-29T18:41:30.021Z,8.40
2022-12-29T18:43:58.346Z,8.30
2022-12-29T18:46:25.858Z,8.30
2022-12-29T18:48:53.854Z,8.20
2022-12-29T18:51:23.821Z,8.20
2022-12-29T18:53:54.244Z,8.20
2022-12-29T18:56:22.912Z,8.10
2022-12-29T18:58:51.028Z,8.10
2022-12-29T19:01:25.313Z,8.10
2022-12-29T19:03:52.984Z,8.00
2022-12-29T19:06:21.419Z,8.00
2022-12-29T19:08:48.628Z,8.00
2022-12-29T19:11:15.846Z,8.00
2022-12-29T19:13:42.865Z,7.90
2022-12-29T19:16:20.332Z,8.00
2022-12-29T19:18:58.268Z,8.00
2022-12-29T19:21:31.048Z,8.00
2022-12-29T19:23:58.037Z,8.00
2022-12-29T19:26:30.986Z,8.10
2022-12-29T19:28:58.720Z,8.10
2022-12-29T19:31:25.848Z,8.10
2022-12-29T19:33:53.545Z,8.10
2022-12-29T19:36:21.941Z,8.10
2022-12-29T19:38:49.326Z,8.20
2022-12-29T19:41:16.747Z,8.10
2022-12-29T19:43:43.835Z,8.10
2022-12-29T19:46:17.124Z,8.10
2022-12-29T19:48:44.536Z,8.10
2022-12-29T19:51:18.386Z,8.00
2022-12-29T19:53:46.535Z,8.10
2022-12-29T19:56:14.520Z,8.00
2022-12-29T19:58:47.002Z,8.00
2022-12-29T20:01:19.322Z,8.00
2022-12-29T20:03:47.130Z,8.00
2022-12-29T20:06:14.511Z,8.00
2022-12-29T20:08:41.727Z,8.00
2022-12-29T20:11:16.171Z,7.90
2022-12-29T20:13:43.833Z,7.90
2022-12-29T20:16:15.997Z,7.90
2022-12-29T20:18:44.179Z,7.90
2022-12-29T20:21:21.767Z,7.90
2022-12-29T20:23:53.743Z,7.90
2022-12-29T20:26:27.988Z,7.80
2022-12-29T20:28:57.820Z,7.80
2022-12-29T20:31:29.931Z,7.80
2022-12-29T20:33:57.224Z,7.80
2022-12-29T20:36:33.858Z,7.80
2022-12-29T20:39:04.913Z,7.80
2022-12-29T20:41:31.940Z,7.80
2022-12-29T20:43:59.478Z,7.70
2022-12-29T20:46:35.052Z,7.70
2022-12-29T20:49:04.463Z,7.60
2022-12-29T20:51:50.938Z,7.60
2022-12-29T20:54:19.768Z,7.60
2022-12-29T20:56:47.164Z,7.60
2022-12-29T20:59:29.608Z,7.70
2022-12-29T21:01:58.234Z,7.60
2022-12-29T21:04:26.061Z,7.60
2022-12-29T21:06:53.188Z,7.70
2022-12-29T21:09:20.483Z,7.60
2022-12-29T21:11:48.827Z,7.60
2022-12-29T21:14:15.916Z,7.60
2022-12-29T21:16:43.003Z,7.60
2022-12-29T21:19:10.089Z,7.60
2022-12-29T21:21:37.133Z,7.50
2022-12-29T21:24:06.946Z,7.50
2022-12-29T21:26:34.188Z,7.50
2022-12-29T21:29:03.478Z,7.50
2022-12-29T21:31:36.030Z,7.40
2022-12-29T21:34:05.638Z,7.40
2022-12-29T21:36:33.931Z,7.40
2022-12-29T21:39:03.777Z,7.40
2022-12-29T21:41:32.048Z,7.40
2022-12-29T21:44:17.823Z,7.30
2022-12-29T21:46:46.944Z,7.40
2022-12-29T21:49:14.020Z,7.40
2022-12-29T21:51:57.465Z,7.40
2022-12-29T21:54:46.568Z,7.40
2022-12-29T21:57:38.806Z,7.30
2022-12-29T22:00:30.498Z,7.30
2022-12-29T22:03:22.703Z,7.30
2022-12-29T22:06:10.156Z,7.30
2022-12-29T22:08:57.036Z,7.30
2022-12-29T22:11:43.062Z,7.30
2022-12-29T22:14:10.342Z,7.20
2022-12-29T22:16:37.317Z,7.20
2022-12-29T22:19:04.640Z,7.20
2022-12-29T22:21:31.783Z,7.20
2022-12-29T22:24:00.545Z,7.20
2022-12-29T22:26:27.567Z,7.20
2022-12-29T22:28:54.741Z,7.20
2022-12-29T22:31:32.885Z,7.20
2022-12-29T22:34:04.992Z,7.10
2022-12-29T22:36:32.815Z,7.20
2022-12-29T22:38:59.814Z,7.10
2022-12-29T22:41:26.742Z,7.10
2022-12-29T22:43:53.752Z,7.10
2022-12-29T22:46:20.723Z,7.20
2022-12-29T22:48:47.718Z,7.20
2022-12-29T22:51:14.951Z,7.20
2022-12-29T22:53:42.044Z,7.20
2022-12-29T22:56:12.244Z,7.20
2022-12-29T22:58:44.911Z,7.20
2022-12-29T23:01:16.305Z,7.20
2022-12-29T23:03:44.349Z,7.10
2022-12-29T23:06:14.355Z,7.10
2022-12-29T23:08:41.325Z,7.20
2022-12-29T23:11:12.122Z,7.10
2022-12-29T23:13:41.111Z,7.10
2022-12-29T23:16:08.499Z,7.10
2022-12-29T23:18:36.982Z,7.10
2022-12-29T23:21:06.989Z,7.10
2022-12-29T23:23:52.828Z,7.10
2022-12-29T23:26:26.540Z,7.10
2022-12-29T23:28:59.912Z,7.10
2022-12-29T23:31:32.643Z,7.00
2022-12-29T23:34:01.367Z,7.00
2022-12-29T23:36:29.750Z,7.00
2022-12-29T23:38:59.914Z,6.90
2022-12-29T23:41:30.845Z,6.90
2022-12-29T23:43:58.212Z,6.90
2022-12-29T23:46:28.633Z,6.90
2022-12-29T23:48:56.045Z,7.00
2022-12-29T23:51:23.105Z,7.00
2022-12-29T23:53:50.091Z,7.00
2022-12-29T23:56:23.587Z,7.00
2022-12-29T23:58:51.513Z,7.00
